createdAt,value
2019-04-10T00:01:36.545Z,7.92
2019-04-10T00:04:02.955Z,7.98
2019-04-10T00:06:29.883Z,8.04
2019-04-10T00:08:56.769Z,8.12
2019-04-10T00:11:22.931Z,8.16
2019-04-10T00:13:49.109Z,8.13
2019-04-10T00:16:15.971Z,8.04
2019-04-10T00:18:42.260Z,8.06
2019-04-10T00:21:09.137Z,8.06
2019-04-10T00:23:35.437Z,8.02
2019-04-10T00:26:01.585Z,7.92
2019-04-10T00:28:27.642Z,7.88
2019-04-10T00:30:53.792Z,7.92
2019-04-10T00:33:20.788Z,7.94
2019-04-10T00:35:47.730Z,7.90
2019-04-10T00:38:13.966Z,7.78
2019-04-10T00:40:40.090Z,7.87
2019-04-10T00:43:06.638Z,7.86
2019-04-10T00:45:33.454Z,7.82
2019-04-10T00:47:59.653Z,7.79
2019-04-10T00:50:26.564Z,7.77
2019-04-10T00:52:52.854Z,7.73
2019-04-10T00:55:19.686Z,7.65
2019-04-10T00:57:45.930Z,7.55
2019-04-10T01:00:12.858Z,7.53
2019-04-10T01:02:38.997Z,7.49
2019-04-10T01:05:05.109Z,7.46
2019-04-10T01:07:37.193Z,7.38
2019-04-10T01:09:59.184Z,7.36
2019-04-10T01:12:25.310Z,7.35
2019-04-10T01:14:51.444Z,7.36
2019-04-10T01:17:17.881Z,7.38
2019-04-10T01:19:44.044Z,7.38
2019-04-10T01:22:10.688Z,7.35
2019-04-10T01:24:37.615Z,7.10
2019-04-10T01:27:04.184Z,7.10
2019-04-10T01:29:30.130Z,7.11
2019-04-10T01:31:56.282Z,7.13
2019-04-10T01:34:22.296Z,7.10
2019-04-10T01:36:48.406Z,7.08
2019-04-10T01:39:16.461Z,7.09
2019-04-10T01:41:42.578Z,7.06
2019-04-10T01:44:08.700Z,7.05
2019-04-10T01:46:36.087Z,6.89
2019-04-10T01:49:02.372Z,6.83
2019-04-10T01:51:28.437Z,6.76
2019-04-10T01:53:54.510Z,6.77
2019-04-10T01:56:27.477Z,6.79
2019-04-10T01:58:49.572Z,6.78
2019-04-10T02:01:18.535Z,6.77
2019-04-10T02:03:44.752Z,6.79
2019-04-10T02:06:11.317Z,6.80
2019-04-10T02:08:38.222Z,6.79
2019-04-10T02:11:04.823Z,6.75
2019-04-10T02:13:31.641Z,6.68
2019-04-10T02:15:58.566Z,6.69
2019-04-10T02:18:25.520Z,6.69
2019-04-10T02:20:51.619Z,6.72
2019-04-10T02:23:19.161Z,6.72
2019-04-10T02:25:45.395Z,6.73
2019-04-10T02:28:11.404Z,6.72
2019-04-10T02:30:39.585Z,6.72
2019-04-10T02:33:06.066Z,6.68
2019-04-10T02:35:33.880Z,6.64
2019-04-10T02:38:18.638Z,6.55
2019-04-10T02:40:28.885Z,6.51
2019-04-10T02:42:56.551Z,6.48
2019-04-10T02:45:24.202Z,6.47
2019-04-10T02:47:50.990Z,6.40
2019-04-10T02:50:18.777Z,6.39
2019-04-10T02:52:45.923Z,6.43
2019-04-10T02:55:14.337Z,6.44
2019-04-10T02:57:41.368Z,6.39
2019-04-10T03:00:08.441Z,6.41
2019-04-10T03:02:36.296Z,6.38
2019-04-10T03:05:04.611Z,6.39
2019-04-10T03:07:31.865Z,6.44
2019-04-10T03:10:12.044Z,6.44
2019-04-10T03:12:28.255Z,6.40
2019-04-10T03:14:55.072Z,6.26
2019-04-10T03:17:21.358Z,6.17
2019-04-10T03:19:47.499Z,6.15
2019-04-10T03:22:13.685Z,6.14
2019-04-10T03:24:40.205Z,6.18
2019-04-10T03:27:06.362Z,6.21
2019-04-10T03:29:32.672Z,6.09
2019-04-10T03:32:02.141Z,6.07
2019-04-10T03:34:31.897Z,6.08
2019-04-10T03:36:58.093Z,6.08
2019-04-10T03:39:24.295Z,6.07
2019-04-10T03:41:50.564Z,6.02
2019-04-10T03:44:16.760Z,6.05
2019-04-10T03:46:42.859Z,6.06
2019-04-10T03:49:09.620Z,5.96
2019-04-10T03:51:36.635Z,6.00
2019-04-10T03:54:02.914Z,6.06
2019-04-10T03:56:29.693Z,6.12
2019-04-10T03:58:55.873Z,6.18
2019-04-10T04:01:22.981Z,6.23
2019-04-10T04:03:49.224Z,6.28
2019-04-10T04:06:15.497Z,6.24
2019-04-10T04:08:41.661Z,6.15
2019-04-10T04:11:07.767Z,5.98
2019-04-10T04:13:33.899Z,5.83
2019-04-10T04:16:00.266Z,5.84
2019-04-10T04:18:26.905Z,5.91
2019-04-10T04:20:53.080Z,6.00
2019-04-10T04:23:19.452Z,6.05
2019-04-10T04:25:46.221Z,6.01
2019-04-10T04:28:12.379Z,6.02
2019-04-10T04:30:39.058Z,6.09
2019-04-10T04:33:05.214Z,6.15
2019-04-10T04:35:31.330Z,6.22
2019-04-10T04:37:58.340Z,6.28
2019-04-10T04:40:24.396Z,6.33
2019-04-10T04:42:51.425Z,6.16
2019-04-10T04:45:17.445Z,6.15
2019-04-10T04:47:43.597Z,6.20
2019-04-10T04:50:09.832Z,6.19
2019-04-10T04:52:36.941Z,6.06
2019-04-10T04:55:03.963Z,6.02
2019-04-10T04:57:31.230Z,5.95
2019-04-10T04:59:58.984Z,5.97
2019-04-10T05:02:26.124Z,5.98
2019-04-10T05:04:53.461Z,6.08
2019-04-10T05:07:20.351Z,6.12
2019-04-10T05:09:46.571Z,6.17
2019-04-10T05:12:13.378Z,6.14
2019-04-10T05:14:39.952Z,6.06
2019-04-10T05:17:06.166Z,6.00
2019-04-10T05:19:32.219Z,5.90
2019-04-10T05:21:58.249Z,5.99
2019-04-10T05:24:24.401Z,6.00
2019-04-10T05:26:51.172Z,5.95
2019-04-10T05:29:18.228Z,5.92
2019-04-10T05:31:44.685Z,5.93
2019-04-10T05:34:11.453Z,5.94
2019-04-10T05:36:37.793Z,5.95
2019-04-10T05:39:06.347Z,5.92
2019-04-10T05:41:33.531Z,5.95
2019-04-10T05:44:00.736Z,5.95
2019-04-10T05:46:26.881Z,5.92
2019-04-10T05:48:52.887Z,5.83
2019-04-10T05:51:19.210Z,5.83
2019-04-10T05:53:45.269Z,5.74
2019-04-10T05:56:11.998Z,5.74
2019-04-10T05:58:38.668Z,5.71
2019-04-10T06:01:07.520Z,5.76
2019-04-10T06:03:33.764Z,5.86
2019-04-10T06:06:01.147Z,5.96
2019-04-10T06:08:27.500Z,6.02
2019-04-10T06:10:53.681Z,6.01
2019-04-10T06:13:19.846Z,5.87
2019-04-10T06:15:45.869Z,5.84
2019-04-10T06:18:12.791Z,5.88
2019-04-10T06:20:40.025Z,5.98
2019-04-10T06:23:07.332Z,6.04
2019-04-10T06:25:35.988Z,5.92
2019-04-10T06:28:01.628Z,5.83
2019-04-10T06:30:28.051Z,5.80
2019-04-10T06:32:54.289Z,5.80
2019-04-10T06:35:20.439Z,5.74
2019-04-10T06:37:46.602Z,5.60
2019-04-10T06:40:18.599Z,5.57
2019-04-10T06:42:47.543Z,5.53
2019-04-10T06:45:09.439Z,5.46
2019-04-10T06:47:36.200Z,5.46
2019-04-10T06:50:06.475Z,5.53
2019-04-10T06:52:32.690Z,5.57
2019-04-10T06:54:58.868Z,5.58
2019-04-10T06:57:25.019Z,5.63
2019-04-10T06:59:51.119Z,5.68
2019-04-10T07:02:24.565Z,5.66
2019-04-10T07:04:51.547Z,5.64
2019-04-10T07:07:15.811Z,5.65
2019-04-10T07:09:42.166Z,5.71
2019-04-10T07:12:08.470Z,5.73
2019-04-10T07:14:36.872Z,5.70
2019-04-10T07:17:05.452Z,5.74
2019-04-10T07:19:30.925Z,5.75
2019-04-10T07:21:58.975Z,5.74
2019-04-10T07:24:25.109Z,5.84
2019-04-10T07:26:51.282Z,5.84
2019-04-10T07:29:21.079Z,5.82
2019-04-10T07:31:45.356Z,5.84
2019-04-10T07:34:11.474Z,5.84
2019-04-10T07:36:41.665Z,5.93
2019-04-10T07:39:06.070Z,5.94
2019-04-10T07:41:32.208Z,6.02
2019-04-10T07:43:58.749Z,6.09
2019-04-10T07:46:25.952Z,6.10
2019-04-10T07:48:52.502Z,6.15
2019-04-10T07:51:19.046Z,6.21
2019-04-10T07:53:45.220Z,6.24
2019-04-10T07:56:16.159Z,6.26
2019-04-10T07:58:39.979Z,6.26
2019-04-10T08:01:06.179Z,6.29
2019-04-10T08:03:33.158Z,6.36
2019-04-10T08:06:00.360Z,6.41
2019-04-10T08:08:27.726Z,6.46
2019-04-10T08:10:55.044Z,6.52
2019-04-10T08:13:22.516Z,6.58
2019-04-10T08:15:49.970Z,6.64
2019-04-10T08:18:16.225Z,6.69
2019-04-10T08:20:42.553Z,6.79
2019-04-10T08:23:08.987Z,6.79
2019-04-10T08:25:35.763Z,6.71
2019-04-10T08:28:02.769Z,6.63
2019-04-10T08:30:30.022Z,6.61
2019-04-10T08:33:01.079Z,6.67
2019-04-10T08:35:25.085Z,6.79
2019-04-10T08:37:51.314Z,6.91
2019-04-10T08:40:19.028Z,6.87
2019-04-10T08:42:47.320Z,6.82
2019-04-10T08:45:13.436Z,6.81
2019-04-10T08:47:39.708Z,6.92
2019-04-10T08:50:07.624Z,7.06
2019-04-10T08:52:34.692Z,7.17
2019-04-10T08:55:01.891Z,7.21
2019-04-10T08:57:28.161Z,7.28
2019-04-10T08:59:54.235Z,7.26
2019-04-10T09:02:20.429Z,7.31
2019-04-10T09:04:46.897Z,7.32
2019-04-10T09:07:13.745Z,7.34
2019-04-10T09:09:39.890Z,7.40
2019-04-10T09:12:06.014Z,7.50
2019-04-10T09:14:32.944Z,7.62
2019-04-10T09:16:59.203Z,7.69
2019-04-10T09:19:25.677Z,7.85
2019-04-10T09:21:52.118Z,7.95
2019-04-10T09:24:18.222Z,8.06
2019-04-10T09:26:44.580Z,8.16
2019-04-10T09:29:11.830Z,8.11
2019-04-10T09:31:38.274Z,8.00
2019-04-10T09:34:04.527Z,7.95
2019-04-10T09:36:30.658Z,8.04
2019-04-10T09:38:56.955Z,8.10
2019-04-10T09:41:23.785Z,8.22
2019-04-10T09:43:50.035Z,8.19
2019-04-10T09:46:16.278Z,8.23
2019-04-10T09:48:42.438Z,8.23
2019-04-10T09:51:09.648Z,8.19
2019-04-10T09:53:35.807Z,8.23
2019-04-10T09:56:03.133Z,8.23
2019-04-10T09:58:29.613Z,8.29
2019-04-10T10:00:56.484Z,8.32
2019-04-10T10:03:24.117Z,8.46
2019-04-10T10:05:51.020Z,8.53
2019-04-10T10:08:18.332Z,8.60
2019-04-10T10:10:44.993Z,8.66
2019-04-10T10:13:11.232Z,8.72
2019-04-10T10:15:37.694Z,8.64
2019-04-10T10:18:03.883Z,8.60
2019-04-10T10:20:30.723Z,8.60
2019-04-10T10:22:57.774Z,8.66
2019-04-10T10:25:24.118Z,8.64
2019-04-10T10:27:50.967Z,8.60
2019-04-10T10:30:18.273Z,8.51
2019-04-10T10:32:45.455Z,8.62
2019-04-10T10:35:11.632Z,8.68
2019-04-10T10:37:38.844Z,8.71
2019-04-10T10:40:08.309Z,8.75
2019-04-10T10:42:37.043Z,8.57
2019-04-10T10:45:06.816Z,8.62
2019-04-10T10:47:33.027Z,8.68
2019-04-10T10:49:59.116Z,8.70
2019-04-10T10:52:25.740Z,8.75
2019-04-10T10:54:51.946Z,8.88
2019-04-10T10:57:18.079Z,8.93
2019-04-10T10:59:46.057Z,9.02
2019-04-10T11:02:12.639Z,9.15
2019-04-10T11:04:39.843Z,9.24
2019-04-10T11:07:06.929Z,9.31
2019-04-10T11:09:34.100Z,9.33
2019-04-10T11:12:01.725Z,9.29
2019-04-10T11:14:29.924Z,9.28
2019-04-10T11:16:56.319Z,9.34
2019-04-10T11:19:23.794Z,9.38
2019-04-10T11:21:50.965Z,9.44
2019-04-10T11:24:17.302Z,9.47
2019-04-10T11:26:44.001Z,9.51
2019-04-10T11:29:10.233Z,9.33
2019-04-10T11:31:38.120Z,9.37
2019-04-10T11:34:04.421Z,9.41
2019-04-10T11:36:32.278Z,9.47
2019-04-10T11:39:09.646Z,9.48
2019-04-10T11:41:26.677Z,9.55
2019-04-10T11:43:55.849Z,9.64
2019-04-10T11:46:22.735Z,9.51
2019-04-10T11:48:49.351Z,9.50
2019-04-10T11:51:16.494Z,9.33
2019-04-10T11:56:11.590Z,9.31
2019-04-10T11:58:48.677Z,9.28
2019-04-10T12:01:08.474Z,9.28
2019-04-10T12:03:34.989Z,9.40
2019-04-10T12:06:04.330Z,9.59
2019-04-10T12:08:55.282Z,9.67
2019-04-10T12:13:26.187Z,9.59
2019-04-10T12:15:52.643Z,9.54
2019-04-10T12:18:18.741Z,9.43
2019-04-10T12:20:45.220Z,9.39
2019-04-10T12:23:12.591Z,9.30
2019-04-10T12:25:38.858Z,9.26
2019-04-10T12:28:05.454Z,9.24
2019-04-10T12:30:31.676Z,9.24
2019-04-10T12:32:57.913Z,9.33
2019-04-10T12:35:24.694Z,9.16
2019-04-10T12:37:59.465Z,9.06
2019-04-10T12:40:19.507Z,9.10
2019-04-10T12:42:46.181Z,9.15
2019-04-10T12:45:13.573Z,9.12
2019-04-10T12:47:39.925Z,9.05
2019-04-10T12:50:07.964Z,9.09
2019-04-10T12:52:34.575Z,9.05
2019-04-10T12:55:01.979Z,8.87
2019-04-10T12:57:28.626Z,9.00
2019-04-10T12:59:59.870Z,9.15
2019-04-10T13:02:22.803Z,9.26
2019-04-10T13:04:49.851Z,9.17
2019-04-10T13:07:16.113Z,8.99
2019-04-10T13:09:42.262Z,8.92
2019-04-10T13:12:09.037Z,8.87
2019-04-10T13:14:35.490Z,8.81
2019-04-10T13:17:02.856Z,8.81
2019-04-10T13:19:29.227Z,8.78
2019-04-10T13:21:55.759Z,8.74
2019-04-10T13:24:22.089Z,8.61
2019-04-10T13:26:48.271Z,8.56
2019-04-10T13:29:14.558Z,8.57
2019-04-10T13:31:40.807Z,8.65
2019-04-10T13:34:07.038Z,8.54
2019-04-10T13:36:33.251Z,8.57
2019-04-10T13:39:00.239Z,8.50
2019-04-10T13:41:26.672Z,8.55
2019-04-10T13:43:53.958Z,8.65
2019-04-10T13:46:20.524Z,8.71
2019-04-10T13:48:47.266Z,8.72
2019-04-10T13:51:13.486Z,8.76
2019-04-10T13:53:39.945Z,8.85
2019-04-10T13:56:06.600Z,8.95
2019-04-10T13:58:33.254Z,9.00
2019-04-10T14:01:00.905Z,9.07
2019-04-10T14:03:28.046Z,9.11
2019-04-10T14:05:54.845Z,9.08
2019-04-10T14:08:32.432Z,9.07
2019-04-10T14:10:49.238Z,9.06
2019-04-10T14:13:15.720Z,9.03
2019-04-10T14:15:42.219Z,8.95
2019-04-10T14:18:08.883Z,8.94
2019-04-10T14:20:35.439Z,8.79
2019-04-10T14:23:12.607Z,8.76
2019-04-10T14:25:44.162Z,8.57
2019-04-10T14:28:11.047Z,8.45
2019-04-10T14:33:28.243Z,8.28
2019-04-10T14:35:54.377Z,8.36
2019-04-10T14:38:21.140Z,8.43
2019-04-10T14:40:47.663Z,8.49
2019-04-10T14:43:14.674Z,8.57
2019-04-10T14:45:41.587Z,8.64
2019-04-10T14:48:07.943Z,8.69
2019-04-10T14:50:34.397Z,8.70
2019-04-10T14:53:01.326Z,8.58
2019-04-10T14:55:27.580Z,8.53
2019-04-10T14:57:53.600Z,8.47
2019-04-10T15:00:24.677Z,8.38
2019-04-10T15:02:50.795Z,8.37
2019-04-10T15:05:17.526Z,8.38
2019-04-10T15:07:44.768Z,8.31
2019-04-10T15:10:11.213Z,8.18
2019-04-10T15:12:37.429Z,8.07
2019-04-10T15:15:04.559Z,8.07
2019-04-10T15:17:30.878Z,8.01
2019-04-10T15:19:56.915Z,7.98
2019-04-10T15:22:23.495Z,7.92
2019-04-10T15:24:49.791Z,7.98
2019-04-10T15:27:17.141Z,8.02
2019-04-10T15:29:43.423Z,7.94
2019-04-10T15:32:10.604Z,7.94
2019-04-10T15:34:37.495Z,7.94
2019-04-10T15:37:04.675Z,7.99
2019-04-10T15:39:35.765Z,8.06
2019-04-10T15:41:59.518Z,8.15
2019-04-10T15:44:25.919Z,8.20
2019-04-10T15:46:52.023Z,8.22
2019-04-10T15:49:18.138Z,8.13
2019-04-10T15:51:45.398Z,8.06
2019-04-10T15:54:11.835Z,8.11
2019-04-10T15:56:38.149Z,8.06
2019-04-10T15:59:04.499Z,8.04
2019-04-10T16:01:30.911Z,8.00
2019-04-10T16:03:56.957Z,7.96
2019-04-10T16:06:23.131Z,8.00
2019-04-10T16:08:50.369Z,8.04
2019-04-10T16:11:36.662Z,8.02
2019-04-10T16:14:16.661Z,8.04
2019-04-10T16:16:34.761Z,8.04
2019-04-10T16:19:02.785Z,7.98
2019-04-10T16:21:29.701Z,7.95
2019-04-10T16:23:58.401Z,7.98
2019-04-10T16:26:25.243Z,8.03
2019-04-10T16:28:51.565Z,8.05
2019-04-10T16:31:17.849Z,7.98
2019-04-10T16:33:44.140Z,7.97
2019-04-10T16:36:10.886Z,7.95
2019-04-10T16:38:36.993Z,7.83
2019-04-10T16:41:03.212Z,7.78
2019-04-10T16:43:30.524Z,7.82
2019-04-10T16:45:57.295Z,7.81
2019-04-10T16:48:24.634Z,7.88
2019-04-10T16:50:51.956Z,7.77
2019-04-10T16:53:18.580Z,7.71
2019-04-10T16:55:45.049Z,7.73
2019-04-10T16:58:11.706Z,7.71
2019-04-10T17:00:37.990Z,7.69
2019-04-10T17:03:04.622Z,7.64
2019-04-10T17:05:33.612Z,7.58
2019-04-10T17:07:59.327Z,7.59
2019-04-10T17:10:27.976Z,7.50
2019-04-10T17:12:54.896Z,7.44
2019-04-10T17:15:20.982Z,7.41
2019-04-10T17:17:46.922Z,7.29
2019-04-10T17:20:14.053Z,7.22
2019-04-10T17:22:44.418Z,7.29
2019-04-10T17:25:09.647Z,7.35
2019-04-10T17:27:35.902Z,7.40
2019-04-10T17:30:05.377Z,7.43
2019-04-10T17:32:31.617Z,7.40
2019-04-10T17:34:58.876Z,7.24
2019-04-10T17:37:26.097Z,7.15
2019-04-10T17:39:52.419Z,7.05
2019-04-10T17:42:19.913Z,7.03
2019-04-10T17:44:46.267Z,7.10
2019-04-10T17:47:12.583Z,7.06
2019-04-10T17:49:39.303Z,7.13
2019-04-10T17:52:06.298Z,7.13
2019-04-10T17:54:32.528Z,7.17
2019-04-10T17:56:58.663Z,7.14
2019-04-10T17:59:24.854Z,7.18
2019-04-10T18:01:51.670Z,7.24
2019-04-10T18:04:17.914Z,7.27
2019-04-10T18:06:45.686Z,7.21
2019-04-10T18:09:11.871Z,7.13
2019-04-10T18:11:38.032Z,7.22
2019-04-10T18:14:04.150Z,7.24
2019-04-10T18:16:30.284Z,7.28
2019-04-10T18:18:56.516Z,7.26
2019-04-10T18:21:22.515Z,7.29
2019-04-10T18:23:49.520Z,7.30
2019-04-10T18:26:18.052Z,7.32
2019-04-10T18:28:43.726Z,7.37
2019-04-10T18:31:10.346Z,7.44
2019-04-10T18:33:36.480Z,7.40
2019-04-10T18:36:02.960Z,7.25
2019-04-10T18:38:29.936Z,7.22
2019-04-10T18:41:02.298Z,7.20
2019-04-10T18:43:24.340Z,7.21
2019-04-10T18:46:03.003Z,7.20
2019-04-10T18:48:20.717Z,7.18
2019-04-10T18:50:47.491Z,7.19
2019-04-10T18:53:13.476Z,7.15
2019-04-10T18:55:40.646Z,7.21
2019-04-10T18:58:09.606Z,7.24
2019-04-10T19:00:54.604Z,7.26
2019-04-10T19:03:23.536Z,7.10
2019-04-10T19:05:52.034Z,7.14
2019-04-10T19:08:18.341Z,7.19
2019-04-10T19:10:45.374Z,7.15
2019-04-10T19:13:12.928Z,7.15
2019-04-10T19:15:40.525Z,7.22
2019-04-10T19:18:07.664Z,7.27
2019-04-10T19:20:35.255Z,7.34
2019-04-10T19:23:01.518Z,7.39
2019-04-10T19:25:27.595Z,7.29
2019-04-10T19:27:53.835Z,7.24
2019-04-10T19:30:24.687Z,7.08
2019-04-10T19:32:51.889Z,7.04
2019-04-10T19:35:19.907Z,7.06
2019-04-10T19:37:47.136Z,7.08
2019-04-10T19:40:14.126Z,7.06
2019-04-10T19:42:41.689Z,7.10
2019-04-10T19:45:08.230Z,7.05
2019-04-10T19:47:34.724Z,7.06
2019-04-10T19:50:01.425Z,7.11
2019-04-10T19:52:28.538Z,7.17
2019-04-10T19:54:55.474Z,7.06
2019-04-10T19:57:22.255Z,7.00
2019-04-10T19:59:48.709Z,6.99
2019-04-10T20:02:15.224Z,6.98
2019-04-10T20:04:41.369Z,7.05
2019-04-10T20:07:07.513Z,7.01
2019-04-10T20:09:34.610Z,7.04
2019-04-10T20:12:00.776Z,7.12
2019-04-10T20:14:26.796Z,7.10
2019-04-10T20:16:52.832Z,7.05
2019-04-10T20:19:19.417Z,7.02
2019-04-10T20:21:45.594Z,7.08
2019-04-10T20:24:12.377Z,7.08
2019-04-10T20:26:39.155Z,7.09
2019-04-10T20:29:06.593Z,7.11
2019-04-10T20:31:34.638Z,7.05
2019-04-10T20:34:00.684Z,6.97
2019-04-10T20:36:26.856Z,7.07
2019-04-10T20:38:52.932Z,7.15
2019-04-10T20:41:19.039Z,7.11
2019-04-10T20:43:45.253Z,7.13
2019-04-10T20:46:11.792Z,7.22
2019-04-10T20:48:38.367Z,7.33
2019-04-10T20:51:04.521Z,7.42
2019-04-10T20:53:31.663Z,7.49
2019-04-10T20:55:58.095Z,7.36
2019-04-10T20:58:25.311Z,7.41
2019-04-10T21:00:51.595Z,7.47
2019-04-10T21:03:17.670Z,7.50
2019-04-10T21:05:44.556Z,7.58
2019-04-10T21:08:11.569Z,7.60
2019-04-10T21:10:38.674Z,7.65
2019-04-10T21:13:04.851Z,7.72
2019-04-10T21:15:30.963Z,7.74
2019-04-10T21:17:57.091Z,7.73
2019-04-10T21:20:23.186Z,7.66
2019-04-10T21:22:49.313Z,7.65
2019-04-10T21:25:15.441Z,7.71
2019-04-10T21:27:41.562Z,7.65
2019-04-10T21:30:22.113Z,7.68
2019-04-10T21:32:52.837Z,7.74
2019-04-10T21:35:22.901Z,7.79
2019-04-10T21:37:49.035Z,7.83
2019-04-10T21:40:15.165Z,7.83
2019-04-10T21:42:41.344Z,7.84
2019-04-10T21:45:07.546Z,7.81
2019-04-10T21:47:33.676Z,7.78
2019-04-10T21:50:00.421Z,7.82
2019-04-10T21:52:27.184Z,7.88
2019-04-10T21:54:57.173Z,7.89
2019-04-10T21:57:22.310Z,7.92
2019-04-10T21:59:49.439Z,7.83
2019-04-10T22:02:15.908Z,7.81
2019-04-10T22:04:41.946Z,7.79
2019-04-10T22:07:27.796Z,7.54
2019-04-10T22:10:12.776Z,7.51
2019-04-10T22:12:43.564Z,7.57
2019-04-10T22:15:09.133Z,7.62
2019-04-10T22:17:36.219Z,7.49
2019-04-10T22:20:03.354Z,7.47
2019-04-10T22:22:29.600Z,7.47
2019-04-10T22:24:56.911Z,7.45
2019-04-10T22:27:23.345Z,7.38
2019-04-10T22:29:49.595Z,7.35
2019-04-10T22:32:16.411Z,7.36
2019-04-10T22:34:42.696Z,7.38
2019-04-10T22:37:09.842Z,7.35
2019-04-10T22:39:35.963Z,7.29
2019-04-10T22:42:03.373Z,7.28
2019-04-10T22:44:37.542Z,7.30
2019-04-10T22:46:58.698Z,7.34
2019-04-10T22:49:24.918Z,7.38
2019-04-10T22:51:51.840Z,7.35
2019-04-10T22:54:18.010Z,7.34
2019-04-10T22:56:44.095Z,7.27
2019-04-10T22:59:10.272Z,7.23
2019-04-10T23:01:37.564Z,6.95
2019-04-10T23:04:03.949Z,6.88
2019-04-10T23:06:31.272Z,7.01
2019-04-10T23:08:58.073Z,7.16
2019-04-10T23:11:34.811Z,7.30
2019-04-10T23:13:52.230Z,7.40
2019-04-10T23:16:18.292Z,7.47
2019-04-10T23:18:45.606Z,7.54
2019-04-10T23:21:12.345Z,7.58
2019-04-10T23:23:39.044Z,7.63
2019-04-10T23:26:05.188Z,7.62
2019-04-10T23:28:31.550Z,7.57
2019-04-10T23:30:57.844Z,7.55
2019-04-10T23:33:23.953Z,7.47
2019-04-10T23:35:49.966Z,7.44
2019-04-10T23:38:17.425Z,7.46
2019-04-10T23:40:43.644Z,7.46
2019-04-10T23:43:14.862Z,7.46
2019-04-10T23:45:37.907Z,7.47
2019-04-10T23:48:04.543Z,7.50
2019-04-10T23:50:30.678Z,7.53
2019-04-10T23:52:56.799Z,7.59
2019-04-10T23:55:23.988Z,7.64
2019-04-10T23:57:50.141Z,7.71
